Time;durP1;ratioP1;P1;durP2;ratioP2;P2;SDS_P1;SDS_P2;PMS_P1;PMS_P2;Temp;Humidity;BMP_temperature;BMP_pressure;BME280_temperature;BME280_humidity;BME280_pressure;Samples;Min_cycle;Max_cycle;Signal;HPM_P1;HPM_P2
2023/07/21 20:56:56;;;;;;;15.68;6.75;;;;;;;28.21;38.41;94444.75;5040319;22;2761477;-55
2023/07/21 20:58:58;;;;;;;18.17;7.32;;;;;;;28.12;38.53;94454.50;5162136;23;20028;-54
2023/07/21 21:01:00;;;;;;;19.38;7.18;;;;;;;27.94;38.66;94467.47;5164594;22;20561;-58
2023/07/21 21:03:02;;;;;;;13.40;6.68;;;;;;;27.89;39.17;94463.97;5164845;22;20363;-57
2023/07/21 21:05:03;;;;;;;17.23;6.93;;;;;;;27.90;38.59;94455.63;5164564;22;20024;-57
2023/07/21 21:07:06;;;;;;;12.60;6.43;;;;;;;27.83;38.99;94456.97;5162711;22;20524;-56
2023/07/21 21:09:07;;;;;;;20.33;7.55;;;;;;;27.79;39.05;94454.00;5161059;22;20079;-55
2023/07/21 21:11:09;;;;;;;14.75;6.93;;;;;;;27.75;38.81;94452.97;5163811;23;20024;-56
2023/07/21 21:13:11;;;;;;;11.32;6.38;;;;;;;27.77;38.58;94459.69;5163467;23;20402;-56
2023/07/21 21:15:12;;;;;;;20.33;7.18;;;;;;;27.73;38.86;94455.91;5164628;23;20031;-55
2023/07/21 21:17:14;;;;;;;17.25;6.55;;;;;;;27.77;39.03;94458.88;5164023;23;20141;-52
2023/07/21 21:19:16;;;;;;;17.67;6.78;;;;;;;27.80;38.82;94454.84;5163561;22;20078;-54
2023/07/21 21:21:18;;;;;;;17.20;6.78;;;;;;;27.69;38.65;94460.22;5163231;23;20030;-56
2023/07/21 21:23:19;;;;;;;12.73;6.32;;;;;;;27.57;39.13;94457.81;5161421;23;20027;-52
2023/07/21 21:25:21;;;;;;;16.67;6.25;;;;;;;27.46;39.15;94450.84;5163979;23;20032;-55
2023/07/21 21:27:23;;;;;;;15.00;7.15;;;;;;;27.43;38.99;94459.47;5163499;22;20024;-54
2023/07/21 21:29:24;;;;;;;15.48;6.15;;;;;;;27.44;39.41;94458.38;5163444;23;20027;-53
2023/07/21 21:31:26;;;;;;;19.40;6.68;;;;;;;27.43;39.14;94462.16;5163938;23;20024;-57
2023/07/21 21:33:28;;;;;;;12.65;6.70;;;;;;;27.43;39.26;94466.72;5163239;22;20113;-52
2023/07/21 21:35:30;;;;;;;15.85;6.63;;;;;;;27.37;39.18;94476.69;5161766;23;20031;-56
2023/07/21 21:37:32;;;;;;;15.65;6.80;;;;;;;27.24;39.57;94469.94;5160355;23;20060;-52
2023/07/21 21:39:34;;;;;;;15.00;5.88;;;;;;;27.22;39.81;94465.94;5161981;22;20028;-54
2023/07/21 21:41:37;;;;;;;20.98;6.45;;;;;;;27.23;39.21;94471.00;5164340;22;20108;-59
2023/07/21 21:43:39;;;;;;;17.92;6.43;;;;;;;27.25;39.56;94470.75;5164035;22;20031;-54
2023/07/21 21:45:41;;;;;;;13.18;5.75;;;;;;;27.25;39.08;94473.44;5162308;23;20101;-53
2023/07/21 21:47:43;;;;;;;21.63;6.30;;;;;;;27.25;39.04;94474.25;5163105;22;20027;-53
2023/07/21 21:49:44;;;;;;;18.27;6.38;;;;;;;27.26;39.50;94467.81;5163098;23;20327;-48
2023/07/21 21:51:46;;;;;;;14.52;5.90;;;;;;;27.26;39.37;94477.75;5162382;22;20026;-54
2023/07/21 21:53:48;;;;;;;17.10;6.47;;;;;;;27.18;38.85;94469.09;5160806;22;20039;-50
2023/07/21 21:55:50;;;;;;;14.80;5.78;;;;;;;27.07;39.29;94472.88;5163400;23;20024;-51
2023/07/21 21:57:52;;;;;;;14.85;5.38;;;;;;;27.01;39.59;94467.75;5163676;23;20024;-48
2023/07/21 21:59:53;;;;;;;13.98;5.50;;;;;;;26.91;39.15;94474.75;5163559;23;20027;-55
2023/07/21 22:01:55;;;;;;;16.50;5.35;;;;;;;26.92;39.31;94472.84;5161564;22;20020;-56
2023/07/21 22:03:57;;;;;;;15.18;5.80;;;;;;;26.92;39.31;94467.47;5160317;22;20032;-56
2023/07/21 22:06:02;;;;;;;10.80;5.53;;;;;;;26.96;39.65;94469.38;5162476;23;20028;-49
2023/07/21 22:08:04;;;;;;;15.93;5.55;;;;;;;27.02;39.53;94472.03;5162564;22;20113;-50
2023/07/21 22:10:06;;;;;;;18.80;5.82;;;;;;;27.04;39.08;94462.66;5161047;22;20020;-51
2023/07/21 22:12:11;;;;;;;20.13;6.20;;;;;;;27.03;39.02;94462.91;5161927;22;20047;-52
2023/07/21 22:14:13;;;;;;;17.27;6.20;;;;;;;27.09;39.49;94459.16;5163914;22;20070;-52
2023/07/21 22:16:14;;;;;;;14.68;5.80;;;;;;;27.10;39.94;94458.06;5163505;23;20020;-51
2023/07/21 22:18:16;;;;;;;14.73;5.47;;;;;;;27.14;39.49;94464.53;5163739;23;20657;-51
2023/07/21 22:20:19;;;;;;;14.38;5.60;;;;;;;27.10;39.04;94468.84;5163523;23;20059;-53
2023/07/21 22:22:26;;;;;;;9.75;5.28;;;;;;;26.95;39.40;94450.81;5162364;22;20051;-52
2023/07/21 22:24:28;;;;;;;14.73;6.03;;;;;;;26.90;39.08;94453.50;5162292;22;20225;-56
2023/07/21 22:26:30;;;;;;;13.50;5.70;;;;;;;26.88;39.46;94455.66;5163497;22;20058;-52
2023/07/21 22:28:33;;;;;;;19.27;6.20;;;;;;;26.67;39.80;94455.63;5163147;22;20109;-50
2023/07/21 22:30:34;;;;;;;15.40;5.83;;;;;;;26.65;40.19;94463.16;5162605;22;20040;-51
2023/07/21 22:32:36;;;;;;;18.20;5.95;;;;;;;26.70;39.94;94455.09;5161881;22;20521;-50
2023/07/21 22:34:38;;;;;;;18.45;6.25;;;;;;;26.60;40.37;94455.06;5163018;22;20024;-49
2023/07/21 22:36:39;;;;;;;15.98;6.13;;;;;;;26.54;39.89;94464.13;5162635;23;20328;-50
2023/07/21 22:38:41;;;;;;;12.35;6.25;;;;;;;26.58;40.32;94469.84;5160803;23;20093;-54
2023/07/21 22:40:43;;;;;;;14.98;5.88;;;;;;;26.47;40.29;94469.75;5162599;23;20070;-48
2023/07/21 22:42:45;;;;;;;15.07;5.85;;;;;;;26.29;40.79;94483.69;5163575;22;20028;-54
2023/07/21 22:44:49;;;;;;;24.63;6.85;;;;;;;26.26;41.41;94486.88;5162692;22;20026;-54
2023/07/21 22:46:51;;;;;;;16.63;6.95;;;;;;;25.93;42.70;94487.00;5162927;22;20522;-50
2023/07/21 22:48:53;;;;;;;15.45;6.45;;;;;;;25.91;43.28;94480.28;5162939;22;20320;-52
2023/07/21 22:50:55;;;;;;;16.88;6.20;;;;;;;25.95;43.35;94492.09;5160575;23;20028;-49
2023/07/21 22:52:58;;;;;;;16.08;6.78;;;;;;;25.89;43.85;94493.94;5161825;22;20026;-53
2023/07/21 22:55:00;;;;;;;16.80;6.30;;;;;;;25.82;44.74;94495.22;5161437;22;20087;-52
2023/07/21 22:57:03;;;;;;;19.70;6.97;;;;;;;25.64;45.20;94501.81;5163357;23;20343;-53
2023/07/21 22:59:04;;;;;;;11.35;6.10;;;;;;;25.64;45.16;94510.69;5161036;22;20051;-51
2023/07/21 23:01:07;;;;;;;16.98;6.50;;;;;;;25.55;45.11;94517.56;5164494;23;20089;-50
2023/07/21 23:03:09;;;;;;;15.52;6.05;;;;;;;25.60;45.06;94509.56;5164047;22;20094;-52
2023/07/21 23:05:11;;;;;;;17.77;6.68;;;;;;;25.67;45.10;94515.50;5164197;22;20024;-52
2023/07/21 23:07:13;;;;;;;16.08;6.43;;;;;;;25.74;45.01;94521.47;5162624;22;20030;-51
2023/07/21 23:09:15;;;;;;;13.88;5.60;;;;;;;25.84;44.94;94509.19;5162491;23;20094;-53
2023/07/21 23:11:17;;;;;;;12.45;6.10;;;;;;;25.89;44.19;94509.25;5164112;23;20031;-53
2023/07/21 23:13:18;;;;;;;18.02;6.55;;;;;;;25.93;44.38;94521.06;5164284;23;20474;-50
2023/07/21 23:15:20;;;;;;;14.70;6.50;;;;;;;25.94;44.39;94523.50;5164051;22;20434;-49
2023/07/21 23:17:22;;;;;;;14.55;6.05;;;;;;;25.93;44.46;94521.06;5164671;22;20525;-52
2023/07/21 23:19:24;;;;;;;15.68;6.18;;;;;;;25.98;44.44;94522.97;5164020;22;20035;-52
2023/07/21 23:21:25;;;;;;;15.30;5.95;;;;;;;25.98;44.08;94531.03;5164435;23;20095;-53
2023/07/21 23:23:29;;;;;;;15.95;5.90;;;;;;;26.03;44.03;94529.19;5162576;23;20026;-52
2023/07/21 23:25:30;;;;;;;13.20;5.50;;;;;;;26.09;44.05;94530.00;5165009;22;20539;-53
2023/07/21 23:27:32;;;;;;;14.05;5.97;;;;;;;26.09;44.26;94530.84;5164744;22;20028;-51
2023/07/21 23:29:34;;;;;;;12.82;6.00;;;;;;;26.15;43.75;94529.78;5164393;23;20031;-48
2023/07/21 23:31:35;;;;;;;15.43;6.30;;;;;;;26.20;43.66;94530.88;5164788;23;20090;-52
2023/07/21 23:33:37;;;;;;;17.08;6.30;;;;;;;26.19;43.72;94535.44;5164473;22;20831;-48
2023/07/21 23:35:41;;;;;;;17.15;6.28;;;;;;;26.17;43.45;94536.78;5163532;23;20028;-51
2023/07/21 23:37:43;;;;;;;11.93;6.35;;;;;;;26.18;44.21;94541.06;5163554;22;20024;-50
2023/07/21 23:39:45;;;;;;;15.38;5.93;;;;;;;25.96;44.46;94542.00;5163331;23;20593;-49
2023/07/21 23:41:47;;;;;;;10.45;6.20;;;;;;;25.92;44.73;94543.59;5164688;22;20020;-51
2023/07/21 23:43:49;;;;;;;17.40;6.60;;;;;;;25.93;44.61;94537.19;5164391;22;20070;-51
2023/07/21 23:45:50;;;;;;;13.90;6.60;;;;;;;26.01;44.54;94543.94;5164469;22;20035;-52
2023/07/21 23:48:00;;;;;;;19.33;6.22;;;;;;;26.08;44.83;94561.44;5164033;23;20040;-53
2023/07/21 23:50:03;;;;;;;11.75;6.22;;;;;;;26.09;44.96;94555.00;5164111;22;20059;-52
2023/07/21 23:52:05;;;;;;;12.65;6.45;;;;;;;26.10;44.67;94561.97;5163857;22;20316;-51
2023/07/21 23:54:07;;;;;;;15.48;6.75;;;;;;;26.19;45.00;94556.13;5162964;22;20016;-53
2023/07/21 23:56:09;;;;;;;18.48;6.45;;;;;;;26.21;44.56;94565.53;5164379;22;20847;-51
2023/07/21 23:58:10;;;;;;;16.85;5.68;;;;;;;26.17;45.02;94569.78;5164009;22;20043;-47
